Terminal Aerodrome Forecast
Issued by NWS Indianapolis, IN

Home | Current Version | Previous Version | Text Only | Print | Product List | Glossary On
Versions: 1 2 3 4 5 6 7 8 9 10 11 12 13 14 15 16 17 18 19 20 21 22 23 24 25 26 27
207
FTUS43 KIND 281451 AAC
TAFIND
TAF AMD
KIND 281451Z 2815/2918 35010KT P6SM BKN010
     FM281900 36007KT P6SM OVC020
     FM290300 04007KT P6SM OVC015
     FM291100 06007KT P6SM BKN020
     FM291600 08009KT P6SM BKN035=

USA.gov is the U.S. government's official web portal to all federal, state and local government web resources and services.